sensor_id;sensor_type;location;lat;lon;timestamp;P1;durP1;ratioP1;P2;durP2;ratioP2
3121;SDS011;1571;52.524;14.104;2022-08-30T00:01:22;2.87;;;2.67;;
3121;SDS011;1571;52.524;14.104;2022-08-30T00:03:52;3.10;;;2.90;;
3121;SDS011;1571;52.524;14.104;2022-08-30T00:06:23;2.60;;;2.40;;
3121;SDS011;1571;52.524;14.104;2022-08-30T00:08:53;2.07;;;1.97;;
3121;SDS011;1571;52.524;14.104;2022-08-30T00:11:22;2.73;;;2.40;;
3121;SDS011;1571;52.524;14.104;2022-08-30T00:13:52;2.53;;;2.10;;
3121;SDS011;1571;52.524;14.104;2022-08-30T00:16:22;3.10;;;2.80;;
3121;SDS011;1571;52.524;14.104;2022-08-30T00:18:52;2.37;;;2.23;;
3121;SDS011;1571;52.524;14.104;2022-08-30T00:21:23;3.40;;;2.10;;
3121;SDS011;1571;52.524;14.104;2022-08-30T00:23:53;2.30;;;2.20;;
3121;SDS011;1571;52.524;14.104;2022-08-30T00:26:21;2.07;;;1.60;;
3121;SDS011;1571;52.524;14.104;2022-08-30T00:28:50;4.63;;;2.87;;
3121;SDS011;1571;52.524;14.104;2022-08-30T00:31:18;3.47;;;2.53;;
3121;SDS011;1571;52.524;14.104;2022-08-30T00:33:46;2.30;;;1.93;;
3121;SDS011;1571;52.524;14.104;2022-08-30T00:36:14;3.07;;;2.83;;
3121;SDS011;1571;52.524;14.104;2022-08-30T00:38:44;2.40;;;2.20;;
3121;SDS011;1571;52.524;14.104;2022-08-30T00:41:12;2.13;;;1.93;;
3121;SDS011;1571;52.524;14.104;2022-08-30T00:43:40;2.23;;;2.13;;
3121;SDS011;1571;52.524;14.104;2022-08-30T00:46:09;2.70;;;2.50;;
3121;SDS011;1571;52.524;14.104;2022-08-30T00:48:37;2.90;;;2.70;;
3121;SDS011;1571;52.524;14.104;2022-08-30T00:51:10;3.43;;;2.73;;
3121;SDS011;1571;52.524;14.104;2022-08-30T00:53:41;2.80;;;2.60;;
3121;SDS011;1571;52.524;14.104;2022-08-30T00:56:17;3.40;;;2.63;;
3121;SDS011;1571;52.524;14.104;2022-08-30T00:58:48;2.63;;;2.43;;
3121;SDS011;1571;52.524;14.104;2022-08-30T01:01:18;3.23;;;3.00;;
3121;SDS011;1571;52.524;14.104;2022-08-30T01:03:47;3.90;;;2.33;;
3121;SDS011;1571;52.524;14.104;2022-08-30T01:06:16;2.30;;;2.20;;
3121;SDS011;1571;52.524;14.104;2022-08-30T01:08:46;5.17;;;2.67;;
3121;SDS011;1571;52.524;14.104;2022-08-30T01:11:16;3.13;;;2.70;;
3121;SDS011;1571;52.524;14.104;2022-08-30T01:13:49;3.23;;;2.40;;
3121;SDS011;1571;52.524;14.104;2022-08-30T01:16:20;3.20;;;2.33;;
3121;SDS011;1571;52.524;14.104;2022-08-30T01:18:54;3.50;;;3.17;;
3121;SDS011;1571;52.524;14.104;2022-08-30T01:21:26;6.40;;;2.97;;
3121;SDS011;1571;52.524;14.104;2022-08-30T01:23:59;3.60;;;3.33;;
3121;SDS011;1571;52.524;14.104;2022-08-30T01:26:28;2.77;;;2.57;;
3121;SDS011;1571;52.524;14.104;2022-08-30T01:29:00;5.00;;;3.10;;
3121;SDS011;1571;52.524;14.104;2022-08-30T01:31:32;2.53;;;2.27;;
3121;SDS011;1571;52.524;14.104;2022-08-30T01:34:03;3.53;;;2.80;;
3121;SDS011;1571;52.524;14.104;2022-08-30T01:36:33;2.90;;;2.70;;
3121;SDS011;1571;52.524;14.104;2022-08-30T01:39:12;3.53;;;2.30;;
3121;SDS011;1571;52.524;14.104;2022-08-30T01:41:42;2.40;;;2.27;;
3121;SDS011;1571;52.524;14.104;2022-08-30T01:44:11;2.80;;;2.60;;
3121;SDS011;1571;52.524;14.104;2022-08-30T01:46:42;3.53;;;2.60;;
3121;SDS011;1571;52.524;14.104;2022-08-30T01:49:14;2.73;;;2.53;;
3121;SDS011;1571;52.524;14.104;2022-08-30T01:51:53;3.30;;;3.00;;
3121;SDS011;1571;52.524;14.104;2022-08-30T01:54:29;3.27;;;2.53;;
3121;SDS011;1571;52.524;14.104;2022-08-30T01:57:04;3.50;;;3.30;;
3121;SDS011;1571;52.524;14.104;2022-08-30T01:59:33;3.37;;;3.07;;
3121;SDS011;1571;52.524;14.104;2022-08-30T02:02:02;4.90;;;3.63;;
3121;SDS011;1571;52.524;14.104;2022-08-30T02:04:31;4.00;;;3.60;;
3121;SDS011;1571;52.524;14.104;2022-08-30T02:06:59;3.63;;;3.30;;
3121;SDS011;1571;52.524;14.104;2022-08-30T02:09:29;3.03;;;2.80;;
3121;SDS011;1571;52.524;14.104;2022-08-30T02:11:57;6.20;;;4.47;;
3121;SDS011;1571;52.524;14.104;2022-08-30T02:14:25;4.33;;;3.40;;
3121;SDS011;1571;52.524;14.104;2022-08-30T02:16:54;2.93;;;2.73;;
3121;SDS011;1571;52.524;14.104;2022-08-30T02:19:22;6.17;;;3.67;;
3121;SDS011;1571;52.524;14.104;2022-08-30T02:21:51;5.80;;;3.20;;
3121;SDS011;1571;52.524;14.104;2022-08-30T02:24:19;4.00;;;3.50;;
3121;SDS011;1571;52.524;14.104;2022-08-30T02:26:49;3.47;;;3.17;;
3121;SDS011;1571;52.524;14.104;2022-08-30T02:29:19;3.67;;;3.10;;
3121;SDS011;1571;52.524;14.104;2022-08-30T02:31:48;6.10;;;3.83;;
3121;SDS011;1571;52.524;14.104;2022-08-30T02:34:17;7.40;;;4.83;;
3121;SDS011;1571;52.524;14.104;2022-08-30T02:36:46;3.20;;;2.90;;
3121;SDS011;1571;52.524;14.104;2022-08-30T02:39:14;5.93;;;3.47;;
3121;SDS011;1571;52.524;14.104;2022-08-30T02:41:43;5.30;;;3.30;;
3121;SDS011;1571;52.524;14.104;2022-08-30T02:44:12;5.00;;;3.40;;
3121;SDS011;1571;52.524;14.104;2022-08-30T02:46:41;5.57;;;3.87;;
3121;SDS011;1571;52.524;14.104;2022-08-30T02:49:09;4.80;;;2.90;;
3121;SDS011;1571;52.524;14.104;2022-08-30T02:51:57;9.47;;;5.07;;
3121;SDS011;1571;52.524;14.104;2022-08-30T02:54:25;9.23;;;4.07;;
3121;SDS011;1571;52.524;14.104;2022-08-30T02:56:54;4.40;;;4.00;;
3121;SDS011;1571;52.524;14.104;2022-08-30T02:59:25;4.23;;;3.40;;
3121;SDS011;1571;52.524;14.104;2022-08-30T03:01:53;6.07;;;3.40;;
3121;SDS011;1571;52.524;14.104;2022-08-30T03:04:22;5.50;;;3.70;;
3121;SDS011;1571;52.524;14.104;2022-08-30T03:06:52;4.23;;;3.50;;
3121;SDS011;1571;52.524;14.104;2022-08-30T03:09:21;4.23;;;3.80;;
3121;SDS011;1571;52.524;14.104;2022-08-30T03:11:49;5.73;;;4.70;;
3121;SDS011;1571;52.524;14.104;2022-08-30T03:14:18;6.50;;;5.90;;
3121;SDS011;1571;52.524;14.104;2022-08-30T03:16:47;6.10;;;5.50;;
3121;SDS011;1571;52.524;14.104;2022-08-30T03:19:16;5.90;;;4.50;;
3121;SDS011;1571;52.524;14.104;2022-08-30T03:21:44;5.90;;;4.50;;
3121;SDS011;1571;52.524;14.104;2022-08-30T03:24:12;7.00;;;4.87;;
3121;SDS011;1571;52.524;14.104;2022-08-30T03:26:40;5.67;;;5.17;;
3121;SDS011;1571;52.524;14.104;2022-08-30T03:29:12;5.17;;;4.40;;
3121;SDS011;1571;52.524;14.104;2022-08-30T03:31:40;6.83;;;4.50;;
3121;SDS011;1571;52.524;14.104;2022-08-30T03:34:21;4.43;;;4.00;;
3121;SDS011;1571;52.524;14.104;2022-08-30T03:36:50;4.83;;;4.20;;
3121;SDS011;1571;52.524;14.104;2022-08-30T03:39:20;4.33;;;3.93;;
3121;SDS011;1571;52.524;14.104;2022-08-30T03:41:50;4.73;;;4.33;;
3121;SDS011;1571;52.524;14.104;2022-08-30T03:44:19;7.17;;;5.07;;
3121;SDS011;1571;52.524;14.104;2022-08-30T03:46:47;5.80;;;4.23;;
3121;SDS011;1571;52.524;14.104;2022-08-30T03:49:16;4.17;;;3.83;;
3121;SDS011;1571;52.524;14.104;2022-08-30T03:51:46;6.70;;;4.30;;
3121;SDS011;1571;52.524;14.104;2022-08-30T03:54:15;6.40;;;5.30;;
3121;SDS011;1571;52.524;14.104;2022-08-30T03:56:43;7.27;;;6.37;;
3121;SDS011;1571;52.524;14.104;2022-08-30T03:59:11;4.87;;;4.47;;
3121;SDS011;1571;52.524;14.104;2022-08-30T04:01:40;5.43;;;4.53;;
3121;SDS011;1571;52.524;14.104;2022-08-30T04:04:08;5.20;;;4.20;;
3121;SDS011;1571;52.524;14.104;2022-08-30T04:06:37;4.80;;;4.33;;
3121;SDS011;1571;52.524;14.104;2022-08-30T04:09:06;4.53;;;3.90;;
3121;SDS011;1571;52.524;14.104;2022-08-30T04:11:35;7.23;;;5.13;;
3121;SDS011;1571;52.524;14.104;2022-08-30T04:14:03;8.47;;;4.20;;
3121;SDS011;1571;52.524;14.104;2022-08-30T04:16:31;5.90;;;5.27;;
3121;SDS011;1571;52.524;14.104;2022-08-30T04:19:00;4.80;;;4.30;;
3121;SDS011;1571;52.524;14.104;2022-08-30T04:21:28;9.57;;;5.90;;
3121;SDS011;1571;52.524;14.104;2022-08-30T04:23:57;5.00;;;4.53;;
3121;SDS011;1571;52.524;14.104;2022-08-30T04:26:27;5.10;;;4.37;;
3121;SDS011;1571;52.524;14.104;2022-08-30T04:28:55;5.27;;;4.70;;
3121;SDS011;1571;52.524;14.104;2022-08-30T04:31:25;5.03;;;4.30;;
3121;SDS011;1571;52.524;14.104;2022-08-30T04:33:53;4.80;;;4.30;;
3121;SDS011;1571;52.524;14.104;2022-08-30T04:36:22;4.73;;;4.33;;
3121;SDS011;1571;52.524;14.104;2022-08-30T04:38:50;4.50;;;3.87;;
3121;SDS011;1571;52.524;14.104;2022-08-30T04:41:19;6.40;;;4.60;;
3121;SDS011;1571;52.524;14.104;2022-08-30T04:43:49;4.67;;;4.23;;
3121;SDS011;1571;52.524;14.104;2022-08-30T04:46:18;10.07;;;4.80;;
3121;SDS011;1571;52.524;14.104;2022-08-30T04:48:46;6.87;;;5.67;;
3121;SDS011;1571;52.524;14.104;2022-08-30T04:51:16;5.10;;;4.30;;
3121;SDS011;1571;52.524;14.104;2022-08-30T04:53:45;8.27;;;5.70;;
3121;SDS011;1571;52.524;14.104;2022-08-30T04:56:14;5.40;;;4.90;;
3121;SDS011;1571;52.524;14.104;2022-08-30T04:58:46;6.20;;;5.60;;
3121;SDS011;1571;52.524;14.104;2022-08-30T05:01:18;5.63;;;4.77;;
3121;SDS011;1571;52.524;14.104;2022-08-30T05:03:50;6.60;;;6.00;;
3121;SDS011;1571;52.524;14.104;2022-08-30T05:06:19;7.33;;;5.40;;
3121;SDS011;1571;52.524;14.104;2022-08-30T05:08:48;6.10;;;5.50;;
3121;SDS011;1571;52.524;14.104;2022-08-30T05:11:17;7.00;;;5.83;;
3121;SDS011;1571;52.524;14.104;2022-08-30T05:13:46;5.30;;;4.80;;
3121;SDS011;1571;52.524;14.104;2022-08-30T05:16:15;4.93;;;4.47;;
3121;SDS011;1571;52.524;14.104;2022-08-30T05:18:47;7.30;;;5.83;;
3121;SDS011;1571;52.524;14.104;2022-08-30T05:21:18;6.23;;;4.67;;
3121;SDS011;1571;52.524;14.104;2022-08-30T05:23:48;7.83;;;5.33;;
3121;SDS011;1571;52.524;14.104;2022-08-30T05:26:18;8.50;;;6.00;;
3121;SDS011;1571;52.524;14.104;2022-08-30T05:28:50;6.93;;;6.30;;
3121;SDS011;1571;52.524;14.104;2022-08-30T05:31:20;6.27;;;5.07;;
3121;SDS011;1571;52.524;14.104;2022-08-30T05:33:53;8.93;;;5.87;;
3121;SDS011;1571;52.524;14.104;2022-08-30T05:36:24;10.13;;;6.50;;
3121;SDS011;1571;52.524;14.104;2022-08-30T05:38:54;6.20;;;5.60;;
3121;SDS011;1571;52.524;14.104;2022-08-30T05:41:24;9.10;;;8.17;;
3121;SDS011;1571;52.524;14.104;2022-08-30T05:43:53;7.07;;;6.37;;
3121;SDS011;1571;52.524;14.104;2022-08-30T05:46:22;7.40;;;5.93;;
3121;SDS011;1571;52.524;14.104;2022-08-30T05:48:52;6.77;;;6.17;;
3121;SDS011;1571;52.524;14.104;2022-08-30T05:51:23;6.43;;;5.83;;
3121;SDS011;1571;52.524;14.104;2022-08-30T05:53:56;10.53;;;7.53;;
3121;SDS011;1571;52.524;14.104;2022-08-30T05:56:26;8.67;;;7.87;;
3121;SDS011;1571;52.524;14.104;2022-08-30T05:58:55;8.60;;;7.80;;
3121;SDS011;1571;52.524;14.104;2022-08-30T06:01:25;9.50;;;8.50;;
3121;SDS011;1571;52.524;14.104;2022-08-30T06:03:56;10.33;;;9.33;;
3121;SDS011;1571;52.524;14.104;2022-08-30T06:06:30;9.40;;;8.40;;
3121;SDS011;1571;52.524;14.104;2022-08-30T06:09:01;11.07;;;9.37;;
3121;SDS011;1571;52.524;14.104;2022-08-30T06:11:32;10.20;;;8.80;;
3121;SDS011;1571;52.524;14.104;2022-08-30T06:14:01;15.30;;;9.00;;
3121;SDS011;1571;52.524;14.104;2022-08-30T06:16:30;9.20;;;8.07;;
3121;SDS011;1571;52.524;14.104;2022-08-30T06:19:00;10.43;;;9.30;;
3121;SDS011;1571;52.524;14.104;2022-08-30T06:21:29;10.97;;;9.87;;
3121;SDS011;1571;52.524;14.104;2022-08-30T06:23:59;10.33;;;8.53;;
3121;SDS011;1571;52.524;14.104;2022-08-30T06:26:28;13.10;;;10.07;;
3121;SDS011;1571;52.524;14.104;2022-08-30T06:28:58;10.27;;;8.77;;
3121;SDS011;1571;52.524;14.104;2022-08-30T06:31:26;10.20;;;8.60;;
3121;SDS011;1571;52.524;14.104;2022-08-30T06:33:55;11.50;;;8.30;;
3121;SDS011;1571;52.524;14.104;2022-08-30T06:36:25;10.37;;;7.40;;
3121;SDS011;1571;52.524;14.104;2022-08-30T06:38:54;8.50;;;7.60;;
3121;SDS011;1571;52.524;14.104;2022-08-30T06:41:25;8.93;;;7.63;;
3121;SDS011;1571;52.524;14.104;2022-08-30T06:43:55;8.30;;;7.50;;
3121;SDS011;1571;52.524;14.104;2022-08-30T06:46:25;7.57;;;6.77;;
3121;SDS011;1571;52.524;14.104;2022-08-30T06:48:54;8.87;;;7.27;;
3121;SDS011;1571;52.524;14.104;2022-08-30T06:51:25;7.93;;;7.13;;
3121;SDS011;1571;52.524;14.104;2022-08-30T06:53:56;9.67;;;6.93;;
3121;SDS011;1571;52.524;14.104;2022-08-30T06:56:25;7.70;;;5.97;;
3121;SDS011;1571;52.524;14.104;2022-08-30T06:58:54;6.00;;;5.50;;
3121;SDS011;1571;52.524;14.104;2022-08-30T07:01:24;5.33;;;4.70;;
3121;SDS011;1571;52.524;14.104;2022-08-30T07:03:54;5.20;;;4.80;;
3121;SDS011;1571;52.524;14.104;2022-08-30T07:06:24;5.20;;;4.70;;
3121;SDS011;1571;52.524;14.104;2022-08-30T07:08:53;4.30;;;3.90;;
3121;SDS011;1571;52.524;14.104;2022-08-30T07:11:26;4.90;;;4.07;;
3121;SDS011;1571;52.524;14.104;2022-08-30T07:13:56;5.17;;;4.67;;
3121;SDS011;1571;52.524;14.104;2022-08-30T07:16:25;4.60;;;4.27;;
3121;SDS011;1571;52.524;14.104;2022-08-30T07:18:55;3.97;;;3.60;;
3121;SDS011;1571;52.524;14.104;2022-08-30T07:21:26;4.27;;;3.97;;
3121;SDS011;1571;52.524;14.104;2022-08-30T07:23:57;3.60;;;3.30;;
3121;SDS011;1571;52.524;14.104;2022-08-30T07:26:27;3.67;;;3.20;;
3121;SDS011;1571;52.524;14.104;2022-08-30T07:28:58;2.77;;;1.80;;
3121;SDS011;1571;52.524;14.104;2022-08-30T07:31:28;2.50;;;2.40;;
3121;SDS011;1571;52.524;14.104;2022-08-30T07:33:57;3.70;;;3.43;;
3121;SDS011;1571;52.524;14.104;2022-08-30T07:36:27;2.63;;;2.43;;
3121;SDS011;1571;52.524;14.104;2022-08-30T07:38:55;3.50;;;3.00;;
3121;SDS011;1571;52.524;14.104;2022-08-30T07:41:25;3.20;;;2.53;;
3121;SDS011;1571;52.524;14.104;2022-08-30T07:43:55;3.30;;;3.00;;
3121;SDS011;1571;52.524;14.104;2022-08-30T07:46:24;2.80;;;2.60;;
3121;SDS011;1571;52.524;14.104;2022-08-30T07:48:53;4.30;;;2.20;;
3121;SDS011;1571;52.524;14.104;2022-08-30T07:51:23;2.67;;;2.47;;
3121;SDS011;1571;52.524;14.104;2022-08-30T07:53:54;2.80;;;2.60;;
3121;SDS011;1571;52.524;14.104;2022-08-30T07:56:23;5.23;;;2.87;;
3121;SDS011;1571;52.524;14.104;2022-08-30T07:58:51;3.60;;;2.33;;
3121;SDS011;1571;52.524;14.104;2022-08-30T08:01:21;2.03;;;1.60;;
3121;SDS011;1571;52.524;14.104;2022-08-30T08:03:50;1.97;;;1.30;;
3121;SDS011;1571;52.524;14.104;2022-08-30T08:06:19;1.50;;;1.10;;
3121;SDS011;1571;52.524;14.104;2022-08-30T08:08:49;0.93;;;0.90;;
3121;SDS011;1571;52.524;14.104;2022-08-30T08:11:22;1.53;;;0.90;;
3121;SDS011;1571;52.524;14.104;2022-08-30T08:13:59;0.67;;;0.67;;
3121;SDS011;1571;52.524;14.104;2022-08-30T08:16:29;0.80;;;0.80;;
3121;SDS011;1571;52.524;14.104;2022-08-30T08:18:59;0.80;;;0.50;;
3121;SDS011;1571;52.524;14.104;2022-08-30T08:21:28;1.57;;;0.70;;
3121;SDS011;1571;52.524;14.104;2022-08-30T08:23:56;0.43;;;0.43;;
3121;SDS011;1571;52.524;14.104;2022-08-30T08:26:26;1.60;;;0.50;;
3121;SDS011;1571;52.524;14.104;2022-08-30T08:28:54;0.67;;;0.67;;
3121;SDS011;1571;52.524;14.104;2022-08-30T08:31:23;0.60;;;0.60;;
3121;SDS011;1571;52.524;14.104;2022-08-30T08:33:59;0.80;;;0.60;;
3121;SDS011;1571;52.524;14.104;2022-08-30T08:36:31;0.80;;;0.80;;
3121;SDS011;1571;52.524;14.104;2022-08-30T08:39:00;2.20;;;0.60;;
3121;SDS011;1571;52.524;14.104;2022-08-30T08:41:34;1.43;;;0.67;;
3121;SDS011;1571;52.524;14.104;2022-08-30T08:44:11;0.90;;;0.80;;
3121;SDS011;1571;52.524;14.104;2022-08-30T08:46:48;1.00;;;0.60;;
3121;SDS011;1571;52.524;14.104;2022-08-30T08:49:27;0.77;;;0.70;;
3121;SDS011;1571;52.524;14.104;2022-08-30T08:51:56;1.23;;;0.80;;
3121;SDS011;1571;52.524;14.104;2022-08-30T08:54:43;0.90;;;0.80;;
3121;SDS011;1571;52.524;14.104;2022-08-30T08:57:17;1.53;;;0.60;;
3121;SDS011;1571;52.524;14.104;2022-08-30T08:59:50;1.40;;;1.10;;
3121;SDS011;1571;52.524;14.104;2022-08-30T09:02:22;1.83;;;0.60;;
3121;SDS011;1571;52.524;14.104;2022-08-30T09:04:52;1.00;;;0.90;;
3121;SDS011;1571;52.524;14.104;2022-08-30T09:07:25;3.70;;;0.90;;
3121;SDS011;1571;52.524;14.104;2022-08-30T09:09:57;1.67;;;0.80;;
3121;SDS011;1571;52.524;14.104;2022-08-30T09:12:28;0.73;;;0.73;;
3121;SDS011;1571;52.524;14.104;2022-08-30T09:14:59;1.60;;;0.70;;
3121;SDS011;1571;52.524;14.104;2022-08-30T09:17:31;0.93;;;0.60;;
3121;SDS011;1571;52.524;14.104;2022-08-30T09:20:24;1.80;;;0.70;;
3121;SDS011;1571;52.524;14.104;2022-08-30T09:22:55;1.30;;;0.60;;
3121;SDS011;1571;52.524;14.104;2022-08-30T09:25:27;0.50;;;0.50;;
3121;SDS011;1571;52.524;14.104;2022-08-30T09:28:09;0.53;;;0.53;;
3121;SDS011;1571;52.524;14.104;2022-08-30T09:30:38;1.07;;;0.47;;
3121;SDS011;1571;52.524;14.104;2022-08-30T09:33:18;0.50;;;0.50;;
3121;SDS011;1571;52.524;14.104;2022-08-30T09:35:48;0.70;;;0.50;;
3121;SDS011;1571;52.524;14.104;2022-08-30T09:38:38;1.37;;;0.60;;
3121;SDS011;1571;52.524;14.104;2022-08-30T09:41:27;0.50;;;0.50;;
3121;SDS011;1571;52.524;14.104;2022-08-30T09:44:07;1.60;;;0.50;;
3121;SDS011;1571;52.524;14.104;2022-08-30T09:46:44;0.80;;;0.50;;
3121;SDS011;1571;52.524;14.104;2022-08-30T09:49:22;0.53;;;0.50;;
3121;SDS011;1571;52.524;14.104;2022-08-30T09:51:59;0.50;;;0.50;;
3121;SDS011;1571;52.524;14.104;2022-08-30T09:54:37;0.60;;;0.50;;
3121;SDS011;1571;52.524;14.104;2022-08-30T09:57:14;1.43;;;0.50;;
3121;SDS011;1571;52.524;14.104;2022-08-30T10:00:04;0.70;;;0.53;;
3121;SDS011;1571;52.524;14.104;2022-08-30T10:02:42;0.40;;;0.40;;
3121;SDS011;1571;52.524;14.104;2022-08-30T10:05:21;2.13;;;0.50;;
3121;SDS011;1571;52.524;14.104;2022-08-30T10:08:00;0.50;;;0.40;;
3121;SDS011;1571;52.524;14.104;2022-08-30T10:10:40;0.50;;;0.50;;
3121;SDS011;1571;52.524;14.104;2022-08-30T10:13:20;1.17;;;0.60;;
3121;SDS011;1571;52.524;14.104;2022-08-30T10:16:02;0.60;;;0.50;;
3121;SDS011;1571;52.524;14.104;2022-08-30T10:18:44;0.83;;;0.50;;
3121;SDS011;1571;52.524;14.104;2022-08-30T10:21:20;0.80;;;0.50;;
3121;SDS011;1571;52.524;14.104;2022-08-30T10:23:55;0.60;;;0.50;;
3121;SDS011;1571;52.524;14.104;2022-08-30T10:26:29;0.50;;;0.50;;
3121;SDS011;1571;52.524;14.104;2022-08-30T10:29:03;0.50;;;0.50;;
3121;SDS011;1571;52.524;14.104;2022-08-30T10:31:38;1.43;;;0.43;;
3121;SDS011;1571;52.524;14.104;2022-08-30T10:34:13;0.50;;;0.40;;
3121;SDS011;1571;52.524;14.104;2022-08-30T10:36:46;1.07;;;0.63;;
3121;SDS011;1571;52.524;14.104;2022-08-30T10:39:23;0.50;;;0.50;;
3121;SDS011;1571;52.524;14.104;2022-08-30T10:41:59;0.70;;;0.50;;
3121;SDS011;1571;52.524;14.104;2022-08-30T10:44:36;0.77;;;0.60;;
3121;SDS011;1571;52.524;14.104;2022-08-30T10:47:11;0.70;;;0.60;;
3121;SDS011;1571;52.524;14.104;2022-08-30T10:49:50;0.50;;;0.43;;
3121;SDS011;1571;52.524;14.104;2022-08-30T10:52:25;0.60;;;0.50;;
3121;SDS011;1571;52.524;14.104;2022-08-30T10:55:00;0.93;;;0.50;;
3121;SDS011;1571;52.524;14.104;2022-08-30T10:57:32;0.50;;;0.50;;
3121;SDS011;1571;52.524;14.104;2022-08-30T11:00:03;0.60;;;0.60;;
3121;SDS011;1571;52.524;14.104;2022-08-30T11:02:53;0.90;;;0.60;;
3121;SDS011;1571;52.524;14.104;2022-08-30T11:05:42;0.60;;;0.50;;
3121;SDS011;1571;52.524;14.104;2022-08-30T11:08:21;0.60;;;0.60;;
3121;SDS011;1571;52.524;14.104;2022-08-30T11:11:03;0.40;;;0.40;;
3121;SDS011;1571;52.524;14.104;2022-08-30T11:13:40;0.90;;;0.50;;
3121;SDS011;1571;52.524;14.104;2022-08-30T11:16:11;0.80;;;0.50;;
3121;SDS011;1571;52.524;14.104;2022-08-30T11:18:45;0.40;;;0.40;;
3121;SDS011;1571;52.524;14.104;2022-08-30T11:21:20;0.47;;;0.43;;
3121;SDS011;1571;52.524;14.104;2022-08-30T11:29:38;1.50;;;0.40;;
3121;SDS011;1571;52.524;14.104;2022-08-30T11:32:19;0.40;;;0.40;;
3121;SDS011;1571;52.524;14.104;2022-08-30T11:35:12;1.13;;;0.40;;
3121;SDS011;1571;52.524;14.104;2022-08-30T11:38:18;1.67;;;0.57;;
3121;SDS011;1571;52.524;14.104;2022-08-30T11:41:08;0.93;;;0.40;;
3121;SDS011;1571;52.524;14.104;2022-08-30T11:43:48;2.07;;;0.50;;
3121;SDS011;1571;52.524;14.104;2022-08-30T11:46:20;0.50;;;0.50;;
3121;SDS011;1571;52.524;14.104;2022-08-30T11:49:05;1.67;;;0.50;;
3121;SDS011;1571;52.524;14.104;2022-08-30T11:52:02;0.50;;;0.40;;
3121;SDS011;1571;52.524;14.104;2022-08-30T11:54:58;0.70;;;0.50;;
3121;SDS011;1571;52.524;14.104;2022-08-30T11:57:44;0.60;;;0.40;;
3121;SDS011;1571;52.524;14.104;2022-08-30T12:00:28;1.13;;;0.50;;
3121;SDS011;1571;52.524;14.104;2022-08-30T12:03:01;0.73;;;0.50;;
3121;SDS011;1571;52.524;14.104;2022-08-30T12:05:51;0.70;;;0.50;;
3121;SDS011;1571;52.524;14.104;2022-08-30T12:08:48;0.40;;;0.40;;
3121;SDS011;1571;52.524;14.104;2022-08-30T12:14:36;0.60;;;0.60;;
3121;SDS011;1571;52.524;14.104;2022-08-30T12:17:22;1.27;;;0.60;;
3121;SDS011;1571;52.524;14.104;2022-08-30T12:20:15;0.60;;;0.60;;
3121;SDS011;1571;52.524;14.104;2022-08-30T12:22:47;2.40;;;0.70;;
3121;SDS011;1571;52.524;14.104;2022-08-30T12:25:24;1.23;;;0.70;;
3121;SDS011;1571;52.524;14.104;2022-08-30T12:28:08;0.50;;;0.50;;
3121;SDS011;1571;52.524;14.104;2022-08-30T12:30:38;0.60;;;0.60;;
3121;SDS011;1571;52.524;14.104;2022-08-30T12:33:08;0.87;;;0.60;;
3121;SDS011;1571;52.524;14.104;2022-08-30T12:35:40;0.70;;;0.60;;
3121;SDS011;1571;52.524;14.104;2022-08-30T12:38:13;0.80;;;0.80;;
3121;SDS011;1571;52.524;14.104;2022-08-30T12:40:55;0.83;;;0.60;;
3121;SDS011;1571;52.524;14.104;2022-08-30T12:43:28;0.60;;;0.60;;
3121;SDS011;1571;52.524;14.104;2022-08-30T12:46:08;1.63;;;0.70;;
3121;SDS011;1571;52.524;14.104;2022-08-30T12:48:41;0.83;;;0.60;;
3121;SDS011;1571;52.524;14.104;2022-08-30T12:51:24;1.63;;;0.70;;
3121;SDS011;1571;52.524;14.104;2022-08-30T12:54:01;1.23;;;0.93;;
3121;SDS011;1571;52.524;14.104;2022-08-30T12:56:47;0.60;;;0.60;;
3121;SDS011;1571;52.524;14.104;2022-08-30T12:59:47;0.80;;;0.60;;
3121;SDS011;1571;52.524;14.104;2022-08-30T13:02:27;0.80;;;0.70;;
3121;SDS011;1571;52.524;14.104;2022-08-30T13:08:14;2.60;;;0.83;;
3121;SDS011;1571;52.524;14.104;2022-08-30T13:10:49;0.70;;;0.70;;
3121;SDS011;1571;52.524;14.104;2022-08-30T13:13:32;0.70;;;0.70;;
3121;SDS011;1571;52.524;14.104;2022-08-30T13:16:08;1.80;;;0.80;;
3121;SDS011;1571;52.524;14.104;2022-08-30T13:18:40;1.23;;;1.10;;
3121;SDS011;1571;52.524;14.104;2022-08-30T13:21:17;1.50;;;0.77;;
3121;SDS011;1571;52.524;14.104;2022-08-30T13:23:48;1.70;;;0.87;;
3121;SDS011;1571;52.524;14.104;2022-08-30T13:26:17;0.73;;;0.73;;
3121;SDS011;1571;52.524;14.104;2022-08-30T13:28:51;1.00;;;0.90;;
3121;SDS011;1571;52.524;14.104;2022-08-30T13:31:21;1.13;;;1.03;;
3121;SDS011;1571;52.524;14.104;2022-08-30T13:33:49;2.73;;;1.23;;
3121;SDS011;1571;52.524;14.104;2022-08-30T13:36:19;1.80;;;1.70;;
3121;SDS011;1571;52.524;14.104;2022-08-30T13:38:50;1.60;;;1.50;;
3121;SDS011;1571;52.524;14.104;2022-08-30T13:41:19;1.87;;;1.23;;
3121;SDS011;1571;52.524;14.104;2022-08-30T13:43:48;1.43;;;1.20;;
3121;SDS011;1571;52.524;14.104;2022-08-30T13:46:38;1.33;;;1.10;;
3121;SDS011;1571;52.524;14.104;2022-08-30T13:49:12;1.57;;;1.27;;
3121;SDS011;1571;52.524;14.104;2022-08-30T13:52:06;1.10;;;1.00;;
3121;SDS011;1571;52.524;14.104;2022-08-30T13:54:48;3.60;;;1.07;;
3121;SDS011;1571;52.524;14.104;2022-08-30T13:57:18;3.73;;;1.00;;
3121;SDS011;1571;52.524;14.104;2022-08-30T14:00:12;1.40;;;1.30;;
3121;SDS011;1571;52.524;14.104;2022-08-30T14:02:45;8.57;;;2.10;;
3121;SDS011;1571;52.524;14.104;2022-08-30T14:05:21;2.30;;;1.03;;
3121;SDS011;1571;52.524;14.104;2022-08-30T14:08:11;1.03;;;0.93;;
3121;SDS011;1571;52.524;14.104;2022-08-30T14:11:01;1.47;;;1.20;;
3121;SDS011;1571;52.524;14.104;2022-08-30T14:13:30;1.53;;;1.30;;
3121;SDS011;1571;52.524;14.104;2022-08-30T14:15:59;1.70;;;1.00;;
3121;SDS011;1571;52.524;14.104;2022-08-30T14:18:51;2.70;;;1.10;;
3121;SDS011;1571;52.524;14.104;2022-08-30T14:21:22;1.13;;;0.90;;
3121;SDS011;1571;52.524;14.104;2022-08-30T14:23:51;1.63;;;1.03;;
3121;SDS011;1571;52.524;14.104;2022-08-30T14:26:20;1.63;;;1.20;;
3121;SDS011;1571;52.524;14.104;2022-08-30T14:28:49;2.10;;;1.20;;
3121;SDS011;1571;52.524;14.104;2022-08-30T14:31:18;6.43;;;1.40;;
3121;SDS011;1571;52.524;14.104;2022-08-30T14:33:47;1.00;;;0.90;;
3121;SDS011;1571;52.524;14.104;2022-08-30T14:36:16;2.10;;;1.20;;
3121;SDS011;1571;52.524;14.104;2022-08-30T14:38:46;2.80;;;1.70;;
3121;SDS011;1571;52.524;14.104;2022-08-30T14:41:15;4.43;;;1.30;;
3121;SDS011;1571;52.524;14.104;2022-08-30T14:43:44;1.30;;;1.13;;
3121;SDS011;1571;52.524;14.104;2022-08-30T14:46:13;5.83;;;1.40;;
3121;SDS011;1571;52.524;14.104;2022-08-30T14:48:42;1.30;;;1.20;;
3121;SDS011;1571;52.524;14.104;2022-08-30T14:51:13;2.13;;;1.77;;
3121;SDS011;1571;52.524;14.104;2022-08-30T14:53:44;2.60;;;1.60;;
3121;SDS011;1571;52.524;14.104;2022-08-30T14:56:15;1.37;;;1.33;;
3121;SDS011;1571;52.524;14.104;2022-08-30T14:58:46;2.80;;;1.33;;
3121;SDS011;1571;52.524;14.104;2022-08-30T15:01:15;2.40;;;1.30;;
3121;SDS011;1571;52.524;14.104;2022-08-30T15:03:45;1.50;;;1.40;;
3121;SDS011;1571;52.524;14.104;2022-08-30T15:06:14;1.13;;;1.03;;
3121;SDS011;1571;52.524;14.104;2022-08-30T15:08:42;1.10;;;1.10;;
3121;SDS011;1571;52.524;14.104;2022-08-30T15:11:15;1.67;;;1.20;;
3121;SDS011;1571;52.524;14.104;2022-08-30T15:13:47;2.60;;;1.10;;
3121;SDS011;1571;52.524;14.104;2022-08-30T15:16:20;1.20;;;1.10;;
3121;SDS011;1571;52.524;14.104;2022-08-30T15:18:51;1.20;;;1.10;;
3121;SDS011;1571;52.524;14.104;2022-08-30T15:21:21;1.73;;;1.63;;
3121;SDS011;1571;52.524;14.104;2022-08-30T15:23:51;5.60;;;1.20;;
3121;SDS011;1571;52.524;14.104;2022-08-30T15:26:23;1.33;;;1.23;;
3121;SDS011;1571;52.524;14.104;2022-08-30T15:28:53;1.80;;;1.70;;
3121;SDS011;1571;52.524;14.104;2022-08-30T15:31:23;2.07;;;1.37;;
3121;SDS011;1571;52.524;14.104;2022-08-30T15:33:54;1.10;;;1.10;;
3121;SDS011;1571;52.524;14.104;2022-08-30T15:36:22;1.33;;;0.93;;
3121;SDS011;1571;52.524;14.104;2022-08-30T15:38:52;1.00;;;0.90;;
3121;SDS011;1571;52.524;14.104;2022-08-30T15:41:22;1.43;;;0.83;;
3121;SDS011;1571;52.524;14.104;2022-08-30T15:43:52;1.53;;;1.07;;
3121;SDS011;1571;52.524;14.104;2022-08-30T15:46:23;1.47;;;1.10;;